Rockport, WA

2:13 AM PDT on August 28, 2016 (GMT -0700)
Newhalem Helistop | | Change Station

Elev 504 ft 48.67 °N, 121.25 °W | Updated 54 seconds ago

Overcast
Overcast
61.2 °F
Feels Like 61.2 °F
N
5.0
Wind Variable Wind from NW

Today
High -- | Low -- °F
--% Chance of Precip.
Yesterday
High -- | Low -- °F
Precip. -- in
Pressure 30.05 in
Visibility 10.0 miles
Clouds Overcast 2500 ft
Dew Point 53 °F
Humidity 74%
Rainfall 0.00 in
Snow Depth Not available.
6:17 AM 7:53 PM
Waning Crescent, 17% visible
METAR KAWO 280855Z 00000KT 10SM OVC025 15/08 A3005 RMK AO1 52014
Pressure 30.05 in
Visibility 10.0 miles
Clouds Overcast 2500 ft
Dew Point 53 °F
Humidity 74%
Rainfall 0.00 in
Snow Depth Not available.
6:17 AM 7:53 PM
Waning Crescent, 17% visible
METAR KAWO 280855Z 00000KT 10SM OVC025 15/08 A3005 RMK AO1 52014

10-Day Weather Forecast

Almanac

Astronomy

Aug. 28, 2016 Rise Set
Actual Time
Civil Twilight
Nautical Twilight
Astronomical Twilight
Moon
Length of Visible Light
Length of Day
Tomorrow will be .
, % of the Moon is Illuminated

Today's Extremes

State Highs State Lows

Community

WunderPhotos

Upload Photos

1,935,540 photos uploaded!

WunderBlog® & News

Nearby

Air Quality

  Air Quality AQ Index Pollutant
Not available.

Snow Depth

Station Depth Elevation

Earthquake Activity

City Distance Mag. Time & Date
Minimum magnitude displayed is 2.5.

Coastal Water Temperatures

Place Temperature

Stations

Nearby Weather Stations

Station Location Temp. Windchill Dew Point Humidity Wind Precip. Elev Updated Type
                   

Watches & Warnings

There are currently no watches in effect.